Station: Middle Point  

  Atmospheric Gas Attenuation - ITU Rec 676-11   ----------------- dB/100km -----------------
Date Time Temp RH % AH g/m3 Dew Point Wind Direction Speed kph Gust kph Barometer mB Rainfall Since 9am 24GHz 47GHz 76GHz 122GHz 134GHz 241GHz
08/05 12:00 30.2 46 14.1 17.3 17 26 1012 0 30.2 29.5 51.9 137.0 143.7 499.0
08/05 11:50 29.6 45 13.36 16.7 17 20 1012.2 0 28.7 28.5 49.5 130.5 135.6 470.4
08/05 11:40 29.6 45 13.36 16.7 22 24 1012.3 0 28.7 28.5 49.5 130.5 135.6 470.5
08/05 11:30 29.5 47 13.87 17.3 17 24 1012.4 0 29.8 29.4 51.5 135.8 142.1 493.4
08/05 11:20 28.9 44 12.57 15.7 15 19 1013.1 0 27.1 27.6 47.0 123.8 127.1 440.7
08/05 11:10 28.6 45 12.65 15.8 17 22 1012.8 0 27.3 27.8 47.4 125.0 128.5 445.7
08/05 11:00 28.8 48 13.64 16.7 17 24 1013 0 29.3 29.3 51.1 134.7 140.6 487.8
08/05 10:50 28.2 47 12.92 15.8 19 24 1013.1 0 27.9 28.3 48.7 128.4 132.6 459.8
08/05 10:40 27.8 47 12.64 15.7 19 20 1013.2 0 27.3 28.0 47.9 126.2 129.8 449.9
08/05 10:30 27.9 50 13.52 16.5 19 24 1013.3 0 29.2 29.4 51.2 135.1 140.7 488.1
08/05 10:20 27.2 48 12.49 15.5 19 22 1013.4 0 27.1 28.0 47.7 125.6 128.9 446.8
08/05 10:10 27.4 50 13.16 16.3 19 22 1013.3 0 28.4 29.0 50.1 132.2 137.0 475.1
08/05 10:00 26.8 50 12.73 15.5 15 20 1013.3 0 27.6 28.5 48.8 128.7 132.6 459.6
08/05 09:50 26.1 51 12.49 15.4 15 20 1013.2 0 27.1 28.3 48.3 127.4 130.7 453.0
08/05 09:40 25.7 54 12.93 15.7 15 19 1013.3 0 28.1 29.2 50.3 132.6 137.0 475.0
08/05 09:30 24.8 58 13.2 16.2 13 20 1013.3 0 28.7 29.9 51.9 137.0 142.2 492.9
08/05 09:20 23.7 63 13.47 16.2 11 13 1013.3 0 29.4 30.7 53.8 141.9 147.8 512.5
08/05 09:10 23.6 62 13.19 15.9 15 19 1013.4 0 28.8 30.3 52.7 139.0 144.3 500.1
08/05 09:00 23.2 66 13.72 16.5 11 15 1013.3 0 29.9 31.3 55.2 145.6 152.2 527.8
08/05 08:50 22.6 72 14.46 17.3 11 15 1013.4 0 31.5 32.8 58.8 155.1 163.8 568.0
08/05 08:40 22.1 72 14.05 16.8 11 13 1013.3 0 30.7 32.3 57.4 151.4 159.0 551.4
08/05 08:30 21.5 75 14.14 16.9 11 19 1013.3 0 30.9 32.7 58.2 153.6 161.6 560.2
08/05 08:20 21 75 13.74 16.4 11 13 1013.3 0 30.1 32.2 56.8 150.0 156.9 544.0
08/05 08:10 20.5 79 14.06 16.7 9 11 1013.1 0 30.8 32.9 58.6 154.7 162.5 563.4
08/05 08:00 20.2 81 14.16 16.8 7 9 1013 0 31.1 33.2 59.3 156.4 164.6 570.6
08/05 07:50 19.6 85 14.35 17 6 7 1013 0 31.5 33.8 60.6 159.9 168.7 584.8
08/05 07:40 18.8 87 14.01 16.6 7 7 1012.8 0 30.9 33.5 59.7 157.5 165.5 573.4
08/05 07:30 18.1 88 13.6 16.1 7 7 1012.7 0 30.0 33.0 58.4 154.0 160.9 557.5
08/05 07:20 17.3 90 13.26 15.6 7 7 1012.7 0 29.4 32.7 57.4 151.5 157.6 545.8
08/05 07:10 17.1 88 12.81 15.2 7 7 1012.6 0 28.4 31.9 55.6 146.6 151.4 524.3
08/05 07:00 17 91 13.17 15.5 7 7 1012.6 0 29.2 32.6 57.3 151.0 156.9 543.3
08/05 06:50 16.7 94 13.36 15.7 7 7 1012.5 0 29.6 33.1 58.3 153.9 160.3 555.2
08/05 06:40 16.9 92 13.23 15.6 6 6 1012.3 0 29.3 32.8 57.6 151.9 158.0 547.0
08/05 06:30 17 91 13.17 15.5 6 7 1012.2 0 29.2 32.6 57.2 151.0 156.9 543.2
08/05 06:20 17.2 90 13.18 15.5 6 6 1012.2 0 29.2 32.6 57.1 150.7 156.6 542.3
08/05 06:10 17.4 89 13.19 15.5 7 7 1012.2 0 29.2 32.5 57.0 150.4 156.3 541.3
08/05 06:00 17.5 88 13.12 15.5 7 9 1012.1 0 29.1 32.3 56.6 149.4 155.1 537.0
08/05 05:50 17.6 89 13.35 15.7 7 7 1012 0 29.5 32.7 57.6 151.9 158.2 548.0
08/05 05:40 17.5 91 13.57 16 6 7 1012 0 30.0 33.1 58.6 154.8 161.7 560.0
08/05 05:30 17.5 90 13.42 15.8 6 7 1012 0 29.7 32.9 58.0 153.0 159.5 552.3
08/05 05:20 17.6 89 13.35 15.7 7 7 1011.9 0 29.5 32.7 57.6 151.9 158.2 548.0
08/05 05:10 17.5 90 13.42 15.8 7 7 1011.9 0 29.7 32.9 58.0 152.9 159.5 552.3
08/05 05:00 17.7 88 13.28 15.7 7 9 1011.9 0 29.4 32.5 57.2 150.9 157.0 543.7
08/05 04:50 17.8 86 13.05 15.4 9 9 1011.8 0 28.9 32.1 56.1 147.9 153.4 531.3
08/05 04:40 17.9 86 13.13 15.5 11 11 1013.1 0 29.0 32.2 56.4 148.9 154.5 535.1
08/05 04:30 17.8 87 13.2 15.6 9 9 1013.1 0 29.2 32.4 56.8 149.9 155.8 539.4
08/05 04:20 17.7 87 13.13 15.6 9 9 1011.6 0 29.1 32.3 56.5 149.1 154.8 535.9
08/05 04:10 17 94 13.6 16 7 7 1011.6 0 30.1 33.4 59.1 156.1 163.2 565.1
08/05 04:00 16.9 94 13.52 15.9 9 11 1011.6 0 30.0 33.3 58.9 155.3 162.2 561.7
08/05 03:50 16.9 95 13.66 16.1 7 7 1011.6 0 30.3 33.5 59.5 157.0 164.3 569.0
08/05 03:40 17.1 94 13.68 16.1 6 7 1011.7 0 30.3 33.5 59.4 156.9 164.2 568.6
08/05 03:30 17.3 94 13.85 16.3 6 7 1011.7 0 30.6 33.7 60.1 158.5 166.3 575.9
08/05 03:20 17.5 93 13.86 16.3 4 6 1011.8 0 30.6 33.7 59.9 158.2 166.0 575.0
08/05 03:10 17.8 91 13.81 16.3 6 6 1011.8 0 30.5 33.4 59.5 157.0 164.6 570.1
08/05 03:00 17.8 91 13.81 16.3 7 9 1011.8 0 30.5 33.4 59.5 157.0 164.6 570.1
08/05 02:50 17.3 94 13.85 16.3 7 7 1011.9 0 30.6 33.7 60.1 158.5 166.3 576.0
08/05 02:40 17.3 95 13.99 16.5 6 7 1012.1 0 30.9 34.0 60.7 160.3 168.4 583.4
08/05 02:30 17.4 95 14.08 16.6 6 6 1012.2 0 31.1 34.1 61.1 161.2 169.5 587.4
08/05 02:20 17.5 95 14.16 16.7 4 4 1012.3 0 31.3 34.2 61.4 162.0 170.5 590.9
08/05 02:10 17.4 94 13.93 16.4 4 4 1012.3 0 30.8 33.8 60.4 159.4 167.3 579.6
08/05 02:00 17.6 93 13.95 16.5 6 6 1012.4 0 30.8 33.8 60.3 159.2 167.2 579.2
08/05 01:50 17.5 96 14.31 16.8 6 6 1012.4 0 31.6 34.5 62.0 163.8 172.8 598.8
08/05 01:40 17.6 96 14.4 16.9 4 4 1012.5 0 31.8 34.6 62.4 164.7 174.0 602.8
08/05 01:30 17.6 95 14.25 16.8 6 6 1012.5 0 31.5 34.4 61.7 162.9 171.7 594.9
08/05 01:20 17.6 94 14.1 16.7 4 6 1012.6 0 31.2 34.1 61.0 161.1 169.4 587.1
08/05 01:10 17.7 94 14.18 16.8 6 6 1012.7 0 31.3 34.2 61.3 161.8 170.4 590.5
08/05 01:00 17.8 94 14.27 16.8 6 6 1012.7 0 31.5 34.3 61.6 162.7 171.6 594.5
08/05 00:50 17.9 93 14.2 16.7 6 6 1012.8 0 31.3 34.2 61.2 161.7 170.3 590.1
08/05 00:40 18 93 14.28 16.8 6 7 1012.9 0 31.5 34.3 61.5 162.4 171.3 593.5
08/05 00:30 18.2 93 14.45 17 7 9 1013 0 31.9 34.5 62.2 164.1 173.4 600.9
08/05 00:20 18.3 91 14.23 16.9 7 7 1013 0 31.4 34.1 61.1 161.2 169.9 588.6
08/05 00:10 18.5 91 14.4 17.1 6 6 1013 0 31.7 34.3 61.7 162.9 171.9 595.9
08/05 00:00 18.7 91 14.57 17.2 6 7 1013.1 0 32.1 34.5 62.3 164.5 174.0 603.3
07/05 23:50 18.8 89 14.33 16.9 6 7 1013.2 0 31.6 34.1 61.1 161.4 170.2 590.0
07/05 23:40 18.8 91 14.65 17.3 7 7 1013.2 0 32.2 34.6 62.6 165.3 175.0 606.7
07/05 23:30 18.9 91 14.74 17.4 7 9 1013.2 0 32.4 34.8 62.9 166.2 176.1 610.6
07/05 23:20 19.1 90 14.75 17.4 7 7 1013.3 0 32.4 34.7 62.8 165.9 175.8 609.5
07/05 23:10 19.1 89 14.59 17.2 7 7 1013.3 0 32.1 34.4 62.1 163.9 173.4 601.2
07/05 23:00 19.2 89 14.67 17.3 7 9 1013.2 0 32.2 34.5 62.4 164.7 174.4 604.5
07/05 22:50 19 90 14.67 17.3 7 9 1013.2 0 32.3 34.6 62.5 165.1 174.9 606.1
07/05 22:40 19.2 91 15 17.7 7 9 1013.2 0 33.0 35.1 63.9 168.7 179.3 621.8
07/05 22:30 19.3 90 14.93 17.6 7 9 1013.2 0 32.8 35.0 63.5 167.6 178.0 617.3
07/05 22:20 19.4 90 15.01 17.7 6 7 1013.3 0 33.0 35.1 63.8 168.4 179.0 620.7
07/05 22:10 19.6 88 14.85 17.5 6 7 1013.3 0 32.6 34.7 62.9 166.0 176.2 610.7
07/05 22:00 19.9 87 14.95 17.7 7 9 1013.3 0 32.8 34.7 63.1 166.6 176.9 613.5
07/05 21:50 19.8 86 14.69 17.5 7 7 1013.3 0 32.2 34.3 62.0 163.6 173.3 600.9
07/05 21:40 20.1 85 14.77 17.5 7 7 1013.3 0 32.4 34.3 62.1 163.9 173.8 602.6
07/05 21:30 19.9 87 14.95 17.7 7 9 1013.2 0 32.8 34.7 63.1 166.5 176.9 613.5
07/05 21:20 19.7 90 15.28 18.1 7 7 1013.1 0 33.5 35.4 64.7 171.0 182.3 632.3
07/05 21:10 19.9 92 15.81 18.5 9 11 1013 0 34.6 36.3 67.0 177.1 189.9 658.6
07/05 21:00 19.9 91 15.63 18.4 7 9 1012.9 0 34.3 36.0 66.2 174.8 187.1 649.0
07/05 20:50 20.2 90 15.74 18.6 6 6 1012.9 0 34.5 36.1 66.4 175.5 188.0 652.2
07/05 20:40 20.4 90 15.92 18.7 6 6 1012.8 0 34.8 36.3 67.1 177.2 190.3 660.0
07/05 20:30 20.6 91 16.29 19.1 7 9 1012.6 0 35.6 36.9 68.6 181.3 195.4 677.8
07/05 20:20 20.9 90 16.39 19.2 7 7 1012.5 0 35.8 37.0 68.8 181.8 196.1 680.4
07/05 20:10 20.9 89 16.21 19 7 7 1012.4 0 35.4 36.6 68.0 179.6 193.3 670.7
07/05 20:00 21.2 89 16.49 19.3 4 6 1012.4 0 36.0 37.0 69.0 182.4 196.8 682.9
07/05 19:50 21.5 87 16.4 19.2 4 4 1012.3 0 35.8 36.7 68.3 180.5 194.6 675.4
07/05 19:40 21.8 87 16.69 19.5 4 4 1012.3 0 36.4 37.1 69.4 183.4 198.3 688.0
07/05 19:30 22.3 84 16.59 19.5 0 0 1012.2 0 36.1 36.7 68.5 180.9 195.4 678.2

Last Refresh: 08-May-2026 12:07:28

Bureau of Meteorology